Time;durP1;ratioP1;P1;durP2;ratioP2;P2;SDS_P1;SDS_P2;PMS_P1;PMS_P2;Temp;Humidity;BMP_temperature;BMP_pressure;BME280_temperature;BME280_humidity;BME280_pressure;Samples;Min_cycle;Max_cycle;Signal;HPM_P1;HPM_P2
2021/09/20 00:00:25;;;;;;;7.45;5.57;;;;;;;;;;5010066;28;20042;-68
2021/09/20 00:02:51;;;;;;;8.82;5.75;;;;;;;;;;5015714;28;20497;-68
2021/09/20 00:05:17;;;;;;;7.53;5.13;;;;;;;;;;5014392;28;20050;-68
2021/09/20 00:07:43;;;;;;;9.65;6.07;;;;;;;;;;5023953;28;20609;-68
2021/09/20 00:10:10;;;;;;;9.30;6.30;;;;;;;;;;5014313;28;20419;-68
2021/09/20 00:12:36;;;;;;;8.93;5.80;;;;;;;;;;5022665;28;20107;-68
2021/09/20 00:15:03;;;;;;;9.45;6.07;;;;;;;;;;5012458;28;20049;-68
2021/09/20 00:17:29;;;;;;;9.02;5.97;;;;;;;;;;5016533;28;20057;-68
2021/09/20 00:19:55;;;;;;;9.60;6.03;;;;;;;;;;5013458;28;20047;-68
2021/09/20 00:22:21;;;;;;;7.65;5.80;;;;;;;;;;5013511;28;20084;-68
2021/09/20 00:24:47;;;;;;;8.93;6.22;;;;;;;;;;5020269;28;20402;-68
2021/09/20 00:27:13;;;;;;;8.20;6.00;;;;;;;;;;5015838;28;20116;-68
2021/09/20 00:29:40;;;;;;;7.28;5.97;;;;;;;;;;5014091;28;20124;-68
2021/09/20 00:32:06;;;;;;;8.63;5.65;;;;;;;;;;5011505;28;20041;-68
2021/09/20 00:34:32;;;;;;;8.98;6.03;;;;;;;;;;5020788;28;20137;-68
2021/09/20 00:36:58;;;;;;;8.05;6.45;;;;;;;;;;5015689;28;20530;-68
2021/09/20 00:39:24;;;;;;;7.35;5.93;;;;;;;;;;5021666;28;20030;-68
2021/09/20 00:41:50;;;;;;;11.43;6.25;;;;;;;;;;5012860;28;20085;-68
2021/09/20 00:44:17;;;;;;;8.98;5.97;;;;;;;;;;5016574;28;20076;-68
2021/09/20 00:46:43;;;;;;;7.82;6.05;;;;;;;;;;4993726;28;20053;-68
2021/09/20 00:49:09;;;;;;;8.75;6.30;;;;;;;;;;5025389;28;20099;-68
2021/09/20 00:51:35;;;;;;;8.85;6.32;;;;;;;;;;5017479;28;20145;-68
2021/09/20 00:54:01;;;;;;;8.32;6.20;;;;;;;;;;5019048;28;20072;-68
2021/09/20 00:56:27;;;;;;;10.95;6.10;;;;;;;;;;5017263;28;20030;-68
2021/09/20 00:58:53;;;;;;;8.18;5.93;;;;;;;;;;5022682;28;20434;-70
2021/09/20 01:01:19;;;;;;;9.07;5.72;;;;;;;;;;5015698;28;20049;-68
2021/09/20 01:03:45;;;;;;;9.57;6.22;;;;;;;;;;5023408;28;20052;-68
2021/09/20 01:06:11;;;;;;;11.38;6.57;;;;;;;;;;5016441;28;20064;-68
2021/09/20 01:08:38;;;;;;;10.75;7.10;;;;;;;;;;5011030;28;20486;-68
2021/09/20 01:11:04;;;;;;;7.32;6.50;;;;;;;;;;5018295;28;20051;-68
2021/09/20 01:13:30;;;;;;;8.30;6.25;;;;;;;;;;5023463;28;20474;-67
2021/09/20 01:15:56;;;;;;;9.95;7.10;;;;;;;;;;5028400;28;20057;-67
2021/09/20 01:18:22;;;;;;;9.35;6.30;;;;;;;;;;5010342;28;20590;-67
2021/09/20 01:20:48;;;;;;;11.20;6.55;;;;;;;;;;5026543;28;20496;-68
2021/09/20 01:23:14;;;;;;;9.13;6.15;;;;;;;;;;5021889;28;20470;-68
2021/09/20 01:25:42;;;;;;;9.30;6.65;;;;;;;;;;5015975;28;20046;-68
2021/09/20 01:28:08;;;;;;;11.90;6.78;;;;;;;;;;5012362;28;20132;-68
2021/09/20 01:30:34;;;;;;;9.40;6.50;;;;;;;;;;5019728;28;20096;-68
2021/09/20 01:33:01;;;;;;;9.10;6.82;;;;;;;;;;5021226;28;20060;-68
2021/09/20 01:35:28;;;;;;;10.25;7.40;;;;;;;;;;5025319;28;20037;-68
2021/09/20 01:37:55;;;;;;;9.25;6.40;;;;;;;;;;5013403;28;20390;-68
2021/09/20 01:40:21;;;;;;;9.68;6.53;;;;;;;;;;5018412;28;20257;-68
2021/09/20 01:42:47;;;;;;;10.55;5.90;;;;;;;;;;5023197;28;20094;-68
2021/09/20 01:45:14;;;;;;;13.00;6.72;;;;;;;;;;5015442;28;20490;-68
2021/09/20 01:47:40;;;;;;;9.75;6.75;;;;;;;;;;5019232;28;20057;-68
2021/09/20 01:50:07;;;;;;;12.57;7.22;;;;;;;;;;5019961;28;20363;-68
2021/09/20 01:52:33;;;;;;;10.35;7.05;;;;;;;;;;5020744;28;20107;-68
2021/09/20 01:55:00;;;;;;;10.90;6.97;;;;;;;;;;5010684;28;20052;-68
2021/09/20 01:57:26;;;;;;;10.02;7.07;;;;;;;;;;5005360;28;20057;-68
2021/09/20 01:59:52;;;;;;;9.80;6.95;;;;;;;;;;5017854;28;20705;-68
2021/09/20 02:02:18;;;;;;;8.77;6.60;;;;;;;;;;5019196;28;20383;-68
2021/09/20 02:04:45;;;;;;;9.40;6.57;;;;;;;;;;5013689;28;20049;-68
2021/09/20 02:07:11;;;;;;;10.73;7.25;;;;;;;;;;5016700;28;20048;-68
2021/09/20 02:09:38;;;;;;;9.65;6.85;;;;;;;;;;5014857;28;20092;-68
2021/09/20 02:12:04;;;;;;;9.73;7.00;;;;;;;;;;5017621;28;20042;-68
2021/09/20 02:14:30;;;;;;;9.93;7.03;;;;;;;;;;5011170;28;20041;-68
2021/09/20 02:16:56;;;;;;;10.88;7.65;;;;;;;;;;5025462;28;20113;-68
2021/09/20 02:19:22;;;;;;;14.98;7.55;;;;;;;;;;5013754;28;20038;-68
2021/09/20 02:21:48;;;;;;;9.50;7.10;;;;;;;;;;5022184;28;20563;-68
2021/09/20 02:24:14;;;;;;;10.88;7.47;;;;;;;;;;5015799;28;20124;-68
2021/09/20 02:26:40;;;;;;;11.38;7.65;;;;;;;;;;5013447;28;20137;-68
2021/09/20 02:29:07;;;;;;;11.13;8.07;;;;;;;;;;5003886;28;20045;-68
2021/09/20 02:31:33;;;;;;;10.57;8.00;;;;;;;;;;5014641;28;20434;-68
2021/09/20 02:33:59;;;;;;;10.52;7.10;;;;;;;;;;5025969;28;20045;-68
2021/09/20 02:36:25;;;;;;;12.98;7.60;;;;;;;;;;5019302;28;20092;-68
2021/09/20 02:38:51;;;;;;;10.68;8.27;;;;;;;;;;5015186;28;20124;-68
2021/09/20 02:41:18;;;;;;;10.95;7.45;;;;;;;;;;5010337;28;20053;-68
2021/09/20 02:43:44;;;;;;;14.40;7.97;;;;;;;;;;5027916;28;20057;-68
2021/09/20 02:46:11;;;;;;;9.70;8.32;;;;;;;;;;5012040;28;20073;-68
2021/09/20 02:48:37;;;;;;;11.18;8.38;;;;;;;;;;5016357;28;20402;-68
2021/09/20 02:51:03;;;;;;;10.07;8.07;;;;;;;;;;5010519;28;20037;-68
2021/09/20 02:53:30;;;;;;;10.82;8.20;;;;;;;;;;5014271;28;20045;-68
2021/09/20 02:55:56;;;;;;;11.90;8.52;;;;;;;;;;5009345;28;20053;-68
2021/09/20 02:58:22;;;;;;;13.70;9.25;;;;;;;;;;5000881;28;20030;-68
2021/09/20 03:00:48;;;;;;;11.63;9.15;;;;;;;;;;5008595;28;20050;-68
2021/09/20 03:03:14;;;;;;;12.18;8.48;;;;;;;;;;5004525;28;20049;-68
2021/09/20 03:05:41;;;;;;;11.38;7.97;;;;;;;;;;5015901;28;20054;-68
2021/09/20 03:08:07;;;;;;;12.23;8.75;;;;;;;;;;5007489;28;20061;-68
2021/09/20 03:10:34;;;;;;;14.82;8.95;;;;;;;;;;5018726;28;20533;-68
2021/09/20 03:13:00;;;;;;;15.60;9.63;;;;;;;;;;5014893;28;20192;-68
2021/09/20 03:15:26;;;;;;;11.80;8.68;;;;;;;;;;5015287;28;20048;-68
2021/09/20 03:17:52;;;;;;;12.88;9.50;;;;;;;;;;5015037;28;20507;-68
2021/09/20 03:20:22;;;;;;;11.75;8.27;;;;;;;;;;5027210;28;20119;-68
2021/09/20 03:22:48;;;;;;;12.73;9.27;;;;;;;;;;5009576;28;20052;-68
2021/09/20 03:25:14;;;;;;;15.15;9.43;;;;;;;;;;5017021;28;20048;-68
2021/09/20 03:27:40;;;;;;;14.00;9.70;;;;;;;;;;5020523;28;20430;-68
2021/09/20 03:30:08;;;;;;;12.77;9.50;;;;;;;;;;5017378;28;20068;-68
2021/09/20 03:32:34;;;;;;;17.42;10.73;;;;;;;;;;5014692;28;20448;-68
2021/09/20 03:35:00;;;;;;;12.30;9.43;;;;;;;;;;5013483;28;20049;-68
2021/09/20 03:37:26;;;;;;;12.27;9.48;;;;;;;;;;5009141;28;20058;-68
2021/09/20 03:39:52;;;;;;;14.90;9.57;;;;;;;;;;5014516;28;20059;-68
2021/09/20 03:42:18;;;;;;;15.48;10.55;;;;;;;;;;5019825;28;20508;-68
2021/09/20 03:44:45;;;;;;;13.13;9.55;;;;;;;;;;5006485;28;20481;-68
2021/09/20 03:47:11;;;;;;;14.48;10.10;;;;;;;;;;5022796;28;20501;-67
2021/09/20 03:49:37;;;;;;;14.35;9.50;;;;;;;;;;5009778;28;20497;-67
2021/09/20 03:52:03;;;;;;;14.48;10.70;;;;;;;;;;5013809;28;20534;-67
2021/09/20 03:54:29;;;;;;;14.93;11.05;;;;;;;;;;5012426;28;20038;-68
2021/09/20 03:56:55;;;;;;;14.85;10.75;;;;;;;;;;5015854;28;20080;-67
2021/09/20 03:59:21;;;;;;;12.93;10.43;;;;;;;;;;5011230;28;20047;-67
2021/09/20 04:01:47;;;;;;;14.80;10.52;;;;;;;;;;5019473;28;20451;-67
2021/09/20 04:04:13;;;;;;;14.18;11.00;;;;;;;;;;5010220;28;20125;-67
2021/09/20 04:06:39;;;;;;;13.50;10.40;;;;;;;;;;5015760;28;20125;-67
2021/09/20 04:09:05;;;;;;;13.68;10.85;;;;;;;;;;5008422;28;20041;-67
2021/09/20 04:11:31;;;;;;;12.43;9.93;;;;;;;;;;5010969;28;20095;-67
2021/09/20 04:13:57;;;;;;;14.30;10.27;;;;;;;;;;5015151;28;20041;-68
2021/09/20 04:16:24;;;;;;;15.05;11.65;;;;;;;;;;5014243;28;20092;-68
2021/09/20 04:18:50;;;;;;;13.85;10.45;;;;;;;;;;5014486;28;20486;-68
2021/09/20 04:21:16;;;;;;;14.57;10.88;;;;;;;;;;5013661;28;20125;-67
2021/09/20 04:23:42;;;;;;;13.85;10.15;;;;;;;;;;5014175;28;20049;-67
2021/09/20 04:26:08;;;;;;;14.55;11.05;;;;;;;;;;5012747;28;20033;-67
2021/09/20 04:28:34;;;;;;;14.85;11.20;;;;;;;;;;5020552;28;20046;-67
2021/09/20 04:31:00;;;;;;;14.40;10.55;;;;;;;;;;5014889;28;20050;-67
2021/09/20 04:33:26;;;;;;;15.80;11.43;;;;;;;;;;5022038;28;20045;-67
2021/09/20 04:35:52;;;;;;;15.27;10.70;;;;;;;;;;5012774;28;20120;-67
2021/09/20 04:38:18;;;;;;;12.95;10.52;;;;;;;;;;5017664;28;20090;-67
2021/09/20 04:40:44;;;;;;;11.85;10.23;;;;;;;;;;5019298;28;20516;-67
2021/09/20 04:43:14;;;;;;;14.52;10.88;;;;;;;;;;5018325;28;20033;-67
2021/09/20 04:45:41;;;;;;;14.43;11.80;;;;;;;;;;5014643;28;20421;-67
2021/09/20 04:48:10;;;;;;;14.55;11.02;;;;;;;;;;5018778;28;20046;-67
2021/09/20 04:50:57;;;;;;;13.60;10.80;;;;;;;;;;5014992;28;20411;-67
2021/09/20 04:53:23;;;;;;;12.57;10.52;;;;;;;;;;5021145;28;20570;-67
2021/09/20 04:55:49;;;;;;;16.23;11.50;;;;;;;;;;5020335;28;20056;-67
2021/09/20 04:58:15;;;;;;;14.10;10.75;;;;;;;;;;5023386;28;20042;-67
2021/09/20 05:00:42;;;;;;;14.18;10.15;;;;;;;;;;5018528;28;20061;-67
2021/09/20 05:03:08;;;;;;;15.35;10.45;;;;;;;;;;5021959;28;20544;-67
2021/09/20 05:05:34;;;;;;;14.27;10.50;;;;;;;;;;5016000;28;20143;-67
2021/09/20 05:08:00;;;;;;;10.77;9.35;;;;;;;;;;5008984;28;20061;-68
2021/09/20 05:10:26;;;;;;;14.05;10.23;;;;;;;;;;5015608;28;20119;-67
2021/09/20 05:12:52;;;;;;;14.95;10.38;;;;;;;;;;5011189;28;20038;-67
2021/09/20 05:15:18;;;;;;;14.15;10.50;;;;;;;;;;5015522;28;20111;-67
2021/09/20 05:17:45;;;;;;;13.85;10.05;;;;;;;;;;5009937;28;20042;-67
2021/09/20 05:20:12;;;;;;;13.02;10.05;;;;;;;;;;5017818;28;20037;-67
2021/09/20 05:22:38;;;;;;;13.93;10.50;;;;;;;;;;5018250;28;20040;-67
2021/09/20 05:25:05;;;;;;;13.82;10.52;;;;;;;;;;5017611;28;20046;-67
2021/09/20 05:27:31;;;;;;;13.40;9.95;;;;;;;;;;5010993;28;20038;-67
2021/09/20 05:29:57;;;;;;;14.77;10.32;;;;;;;;;;5021103;28;20418;-67
2021/09/20 05:32:23;;;;;;;12.85;10.23;;;;;;;;;;5015336;28;20049;-67
2021/09/20 05:34:49;;;;;;;11.40;9.80;;;;;;;;;;5014604;28;20068;-67
2021/09/20 05:37:16;;;;;;;13.68;9.82;;;;;;;;;;5012674;28;20152;-67
2021/09/20 05:39:42;;;;;;;14.90;9.70;;;;;;;;;;5019823;28;20038;-67
2021/09/20 05:42:08;;;;;;;14.10;9.75;;;;;;;;;;5013310;28;20047;-67
2021/09/20 05:44:34;;;;;;;11.82;9.07;;;;;;;;;;5023902;28;20079;-67
2021/09/20 05:47:00;;;;;;;14.43;9.68;;;;;;;;;;5014044;28;20057;-67
2021/09/20 05:49:26;;;;;;;11.75;8.63;;;;;;;;;;5018178;28;20575;-67
2021/09/20 05:51:52;;;;;;;12.40;9.88;;;;;;;;;;5017786;28;20069;-67
2021/09/20 05:54:18;;;;;;;12.18;8.93;;;;;;;;;;5013393;28;20064;-67
2021/09/20 05:56:44;;;;;;;12.68;9.40;;;;;;;;;;5024133;28;20453;-67
2021/09/20 05:59:10;;;;;;;12.07;8.93;;;;;;;;;;5014819;28;20033;-68
2021/09/20 06:01:36;;;;;;;11.40;9.70;;;;;;;;;;5020825;28;20041;-67
2021/09/20 06:04:02;;;;;;;10.93;8.40;;;;;;;;;;5015640;28;20127;-67
2021/09/20 06:06:29;;;;;;;11.95;8.07;;;;;;;;;;5019067;28;20063;-67
2021/09/20 06:08:55;;;;;;;11.68;8.77;;;;;;;;;;5009589;28;20037;-67
2021/09/20 06:11:21;;;;;;;10.82;8.35;;;;;;;;;;5020740;28;20087;-67
2021/09/20 06:13:47;;;;;;;11.50;8.27;;;;;;;;;;5016151;28;20572;-67
2021/09/20 06:16:14;;;;;;;9.05;7.85;;;;;;;;;;5022417;28;20053;-68
2021/09/20 06:18:40;;;;;;;9.93;8.45;;;;;;;;;;5018142;28;20358;-68
2021/09/20 06:21:06;;;;;;;11.20;9.25;;;;;;;;;;5018233;28;20046;-67
2021/09/20 06:23:32;;;;;;;12.43;9.75;;;;;;;;;;5013354;28;20048;-67
2021/09/20 06:25:58;;;;;;;9.98;8.27;;;;;;;;;;5010787;28;20552;-67
2021/09/20 06:28:24;;;;;;;12.40;8.32;;;;;;;;;;5020765;28;20121;-67
2021/09/20 06:30:51;;;;;;;13.10;8.88;;;;;;;;;;5014020;28;20037;-67
2021/09/20 06:33:17;;;;;;;11.30;8.23;;;;;;;;;;5013023;28;20070;-67
2021/09/20 06:35:43;;;;;;;10.88;8.38;;;;;;;;;;5010046;28;20057;-67
2021/09/20 06:38:09;;;;;;;11.98;7.53;;;;;;;;;;5015433;28;20041;-67
2021/09/20 06:40:35;;;;;;;12.93;8.43;;;;;;;;;;5011128;28;21164;-68
2021/09/20 06:43:01;;;;;;;9.20;8.10;;;;;;;;;;5016712;28;20044;-67
2021/09/20 06:45:27;;;;;;;12.73;8.23;;;;;;;;;;5013613;28;20046;-67
2021/09/20 06:47:53;;;;;;;11.48;7.85;;;;;;;;;;5020902;28;20450;-67
2021/09/20 06:50:19;;;;;;;12.00;7.50;;;;;;;;;;5011422;28;20044;-67
2021/09/20 06:52:46;;;;;;;10.93;7.60;;;;;;;;;;5015383;28;20111;-67
2021/09/20 06:55:13;;;;;;;8.80;7.55;;;;;;;;;;5012204;28;20042;-68
2021/09/20 06:57:40;;;;;;;9.75;7.22;;;;;;;;;;5016727;28;20046;-67
2021/09/20 07:00:07;;;;;;;12.75;7.97;;;;;;;;;;5020062;28;20171;-68
2021/09/20 07:02:33;;;;;;;8.35;6.65;;;;;;;;;;5015722;28;20484;-68
2021/09/20 07:04:59;;;;;;;10.18;7.05;;;;;;;;;;5015420;28;20068;-68
2021/09/20 07:07:25;;;;;;;10.32;7.32;;;;;;;;;;5010628;28;20134;-68
2021/09/20 07:09:51;;;;;;;8.43;6.82;;;;;;;;;;5018318;28;20501;-68
2021/09/20 07:12:17;;;;;;;10.73;7.07;;;;;;;;;;5011525;28;20042;-68
2021/09/20 07:14:43;;;;;;;8.65;6.97;;;;;;;;;;5017889;28;20057;-68
2021/09/20 07:17:09;;;;;;;8.77;6.75;;;;;;;;;;5007200;28;20042;-68
2021/09/20 07:19:35;;;;;;;8.25;6.10;;;;;;;;;;5016899;28;20046;-68
2021/09/20 07:22:01;;;;;;;7.95;7.15;;;;;;;;;;5012820;28;20029;-68
2021/09/20 07:24:28;;;;;;;10.15;6.80;;;;;;;;;;5022361;28;20037;-68
2021/09/20 07:26:54;;;;;;;10.13;6.70;;;;;;;;;;5016142;28;20498;-67
2021/09/20 07:29:20;;;;;;;10.35;6.35;;;;;;;;;;5023606;28;20091;-68
2021/09/20 07:31:46;;;;;;;7.78;6.47;;;;;;;;;;5014229;28;20060;-68
2021/09/20 07:34:12;;;;;;;8.85;6.70;;;;;;;;;;5027462;28;20063;-68
2021/09/20 07:36:39;;;;;;;7.97;6.10;;;;;;;;;;5015997;28;20049;-68
2021/09/20 07:39:05;;;;;;;6.30;5.65;;;;;;;;;;5018807;28;20069;-68
2021/09/20 07:41:31;;;;;;;6.93;5.70;;;;;;;;;;5015814;28;20038;-68
2021/09/20 07:43:58;;;;;;;9.55;5.72;;;;;;;;;;5000724;28;20056;-68
2021/09/20 07:46:24;;;;;;;8.30;6.00;;;;;;;;;;5015133;28;20082;-67
2021/09/20 07:48:51;;;;;;;6.88;5.25;;;;;;;;;;5006146;28;20099;-68
2021/09/20 07:51:17;;;;;;;8.32;5.90;;;;;;;;;;5017554;28;20502;-68
2021/09/20 07:53:43;;;;;;;6.03;5.35;;;;;;;;;;5012190;28;20513;-68
2021/09/20 07:56:10;;;;;;;6.10;5.32;;;;;;;;;;5014384;28;20046;-68
2021/09/20 07:58:36;;;;;;;6.85;5.25;;;;;;;;;;5009768;28;20045;-68
2021/09/20 08:01:02;;;;;;;7.18;5.20;;;;;;;;;;5017413;28;20042;-68
2021/09/20 08:03:28;;;;;;;7.55;5.15;;;;;;;;;;5008460;28;20073;-68
2021/09/20 08:05:55;;;;;;;7.70;5.63;;;;;;;;;;5011389;28;20049;-68
2021/09/20 08:08:21;;;;;;;6.47;5.30;;;;;;;;;;5015290;28;20406;-69
2021/09/20 08:10:47;;;;;;;7.35;5.20;;;;;;;;;;5022700;28;20430;-68
2021/09/20 08:13:15;;;;;;;8.52;4.95;;;;;;;;;;5011101;28;20076;-68
2021/09/20 08:15:42;;;;;;;6.68;4.78;;;;;;;;;;5018543;28;20130;-68
2021/09/20 08:18:08;;;;;;;7.57;4.57;;;;;;;;;;5006536;28;20044;-67
2021/09/20 08:20:35;;;;;;;5.35;4.72;;;;;;;;;;5017365;28;20033;-67
2021/09/20 08:23:01;;;;;;;6.45;4.95;;;;;;;;;;5010293;28;20045;-67
2021/09/20 08:25:27;;;;;;;7.55;4.43;;;;;;;;;;5011589;28;20128;-67
2021/09/20 08:27:53;;;;;;;7.15;4.60;;;;;;;;;;5022064;28;20053;-68
2021/09/20 08:30:20;;;;;;;6.55;4.75;;;;;;;;;;5017767;28;20055;-67
2021/09/20 08:32:46;;;;;;;9.60;4.40;;;;;;;;;;5036142;28;20473;-67
2021/09/20 08:35:13;;;;;;;5.22;4.50;;;;;;;;;;5058048;28;20036;-67
2021/09/20 08:37:39;;;;;;;5.88;4.13;;;;;;;;;;5068266;28;20094;-67
2021/09/20 08:40:06;;;;;;;6.75;4.20;;;;;;;;;;5053214;28;20120;-67
2021/09/20 08:42:34;;;;;;;5.88;3.80;;;;;;;;;;5061309;28;20065;-67
2021/09/20 08:45:01;;;;;;;5.00;3.72;;;;;;;;;;5059983;28;20466;-67
2021/09/20 08:47:27;;;;;;;7.88;3.47;;;;;;;;;;5063949;28;20040;-68
2021/09/20 08:49:53;;;;;;;7.30;3.95;;;;;;;;;;5057039;28;20040;-68
2021/09/20 08:52:23;;;;;;;6.47;3.40;;;;;;;;;;5063302;28;20728;-67
2021/09/20 08:54:51;;;;;;;5.50;3.75;;;;;;;;;;5057616;28;20154;-68
2021/09/20 08:57:18;;;;;;;6.38;3.85;;;;;;;;;;5058563;28;20066;-67
2021/09/20 08:59:44;;;;;;;6.90;3.75;;;;;;;;;;5057590;28;20068;-68
2021/09/20 09:02:11;;;;;;;7.78;3.70;;;;;;;;;;5064454;28;20052;-68
2021/09/20 09:04:39;;;;;;;6.25;4.03;;;;;;;;;;5064924;28;20067;-68
2021/09/20 09:07:05;;;;;;;4.72;3.20;;;;;;;;;;5050934;28;20056;-68
2021/09/20 09:09:34;;;;;;;4.00;2.42;;;;;;;;;;5062122;28;20041;-67
2021/09/20 09:12:15;;;;;;;6.70;3.03;;;;;;;;;;5061746;28;20131;-69
2021/09/20 09:14:43;;;;;;;5.18;2.50;;;;;;;;;;5068013;28;20488;-69
2021/09/20 09:17:10;;;;;;;3.38;2.60;;;;;;;;;;5063306;28;20127;-68
2021/09/20 09:19:47;;;;;;;5.10;2.63;;;;;;;;;;5063260;28;20107;-68
2021/09/20 09:22:13;;;;;;;8.60;2.65;;;;;;;;;;5052755;28;20066;-69
2021/09/20 09:24:52;;;;;;;3.15;2.17;;;;;;;;;;5065451;28;20131;-69
2021/09/20 09:27:20;;;;;;;3.90;2.22;;;;;;;;;;5064015;28;20403;-69
2021/09/20 09:29:46;;;;;;;6.13;2.55;;;;;;;;;;5062058;28;20044;-69
2021/09/20 09:32:16;;;;;;;2.97;2.20;;;;;;;;;;5064008;28;20662;-68
2021/09/20 09:34:52;;;;;;;3.13;2.00;;;;;;;;;;5069126;28;20056;-68
2021/09/20 09:37:18;;;;;;;2.88;1.83;;;;;;;;;;5059667;28;20047;-68
2021/09/20 09:39:44;;;;;;;3.25;2.38;;;;;;;;;;5061293;28;20025;-68
2021/09/20 09:42:29;;;;;;;4.07;2.03;;;;;;;;;;5057872;28;20056;-68
2021/09/20 09:44:55;;;;;;;;;;;;;;;;;;5068913;28;20084;-68
2021/09/20 09:47:28;;;;;;;3.17;1.88;;;;;;;;;;5058250;28;19966;-68
2021/09/20 09:50:12;;;;;;;5.07;1.90;;;;;;;;;;5066765;28;20136;-68
2021/09/20 09:52:38;;;;;;;4.65;2.17;;;;;;;;;;5061567;28;20036;-67
2021/09/20 09:55:06;;;;;;;3.00;1.90;;;;;;;;;;5060255;28;20059;-68
2021/09/20 09:57:33;;;;;;;4.38;1.55;;;;;;;;;;5051220;28;20060;-68
2021/09/20 10:00:06;;;;;;;3.65;1.50;;;;;;;;;;5061947;28;20044;-68
2021/09/20 10:02:33;;;;;;;3.17;1.67;;;;;;;;;;5061337;28;20071;-68
2021/09/20 10:05:04;;;;;;;4.38;1.00;;;;;;;;;;5062754;28;20040;-68
2021/09/20 10:07:35;;;;;;;4.43;1.17;;;;;;;;;;5061554;28;20057;-68
2021/09/20 10:10:04;;;;;;;3.05;1.20;;;;;;;;;;5064361;28;20047;-68
2021/09/20 10:12:30;;;;;;;3.13;1.25;;;;;;;;;;5056095;28;20029;-69
2021/09/20 10:14:58;;;;;;;3.10;1.00;;;;;;;;;;5063380;28;20044;-69
2021/09/20 10:17:25;;;;;;;2.58;0.93;;;;;;;;;;5058306;28;20037;-68
2021/09/20 10:19:51;;;;;;;2.85;0.80;;;;;;;;;;5058015;28;20037;-69
2021/09/20 10:22:18;;;;;;;1.50;0.80;;;;;;;;;;5061378;28;20546;-68
2021/09/20 10:24:45;;;;;;;4.40;0.95;;;;;;;;;;5054766;28;20408;-68
2021/09/20 10:27:15;;;;;;;2.08;0.82;;;;;;;;;;5066694;28;20063;-69
2021/09/20 10:29:44;;;;;;;1.20;0.70;;;;;;;;;;5052101;28;20041;-68
2021/09/20 10:32:10;;;;;;;2.10;0.70;;;;;;;;;;5063744;28;21046;-68
2021/09/20 10:34:36;;;;;;;1.95;0.73;;;;;;;;;;5060739;28;20087;-68
2021/09/20 10:37:13;;;;;;;1.85;0.55;;;;;;;;;;5062793;28;20041;-68
2021/09/20 10:39:45;;;;;;;1.52;0.63;;;;;;;;;;5060704;28;20040;-68
2021/09/20 10:42:12;;;;;;;2.42;0.70;;;;;;;;;;5057458;28;20044;-68
2021/09/20 10:44:41;;;;;;;1.73;0.40;;;;;;;;;;5056295;28;20036;-68
2021/09/20 10:47:14;;;;;;;2.08;0.73;;;;;;;;;;5069295;28;20037;-69
2021/09/20 10:49:48;;;;;;;2.50;0.53;;;;;;;;;;5055096;28;20483;-68
2021/09/20 10:52:14;;;;;;;1.80;0.43;;;;;;;;;;5062268;28;20044;-69
2021/09/20 10:54:40;;;;;;;1.45;0.63;;;;;;;;;;5057491;28;20042;-69
2021/09/20 10:57:19;;;;;;;2.00;0.50;;;;;;;;;;5061506;28;20075;-69
2021/09/20 10:59:46;;;;;;;1.88;0.60;;;;;;;;;;5057809;28;20045;-68
2021/09/20 11:02:32;;;;;;;1.50;0.60;;;;;;;;;;5064256;28;20025;-68
2021/09/20 11:05:06;;;;;;;2.83;0.55;;;;;;;;;;5052998;28;20048;-68
2021/09/20 11:07:48;;;;;;;1.83;0.57;;;;;;;;;;5061368;28;20500;-68
2021/09/20 11:10:15;;;;;;;2.92;0.52;;;;;;;;;;5052626;28;20052;-68
2021/09/20 11:12:56;;;;;;;0.82;0.40;;;;;;;;;;5065608;28;20361;-68
2021/09/20 11:15:22;;;;;;;0.80;0.50;;;;;;;;;;5059839;28;20041;-68
2021/09/20 11:17:50;;;;;;;0.98;0.55;;;;;;;;;;5059475;28;20557;-67
2021/09/20 11:20:17;;;;;;;2.75;0.70;;;;;;;;;;5054857;28;20036;-68
2021/09/20 11:22:43;;;;;;;1.75;0.60;;;;;;;;;;5066893;28;20511;-68
2021/09/20 11:25:15;;;;;;;2.38;0.70;;;;;;;;;;5058904;28;20037;-68
2021/09/20 11:27:46;;;;;;;1.55;0.57;;;;;;;;;;5060205;28;20493;-68
2021/09/20 11:30:25;;;;;;;1.90;0.60;;;;;;;;;;5064975;28;20080;-68
2021/09/20 11:33:02;;;;;;;5.35;0.82;;;;;;;;;;5065323;28;20041;-68
2021/09/20 11:35:30;;;;;;;2.97;0.82;;;;;;;;;;5060078;28;20040;-68
2021/09/20 11:37:57;;;;;;;1.98;0.45;;;;;;;;;;5055132;28;20052;-68
2021/09/20 11:40:28;;;;;;;1.50;0.50;;;;;;;;;;5064408;28;20069;-68
2021/09/20 11:42:55;;;;;;;1.42;0.60;;;;;;;;;;5059077;28;20093;-68
2021/09/20 11:45:25;;;;;;;3.03;0.65;;;;;;;;;;5058785;28;20037;-67
2021/09/20 11:47:53;;;;;;;1.55;0.50;;;;;;;;;;5056884;28;20124;-67
2021/09/20 11:50:20;;;;;;;1.50;0.93;;;;;;;;;;5066104;28;20291;-67
2021/09/20 11:52:48;;;;;;;2.92;0.77;;;;;;;;;;5059918;28;20044;-68
2021/09/20 11:55:14;;;;;;;1.95;0.68;;;;;;;;;;5060140;28;20094;-67
2021/09/20 11:57:43;;;;;;;2.42;0.80;;;;;;;;;;5058190;28;20143;-68
2021/09/20 12:00:10;;;;;;;1.73;0.63;;;;;;;;;;5063132;28;20051;-67
2021/09/20 12:02:44;;;;;;;1.35;0.70;;;;;;;;;;5059399;28;20032;-68
2021/09/20 12:05:12;;;;;;;2.22;0.70;;;;;;;;;;5056810;28;20076;-67
2021/09/20 12:07:45;;;;;;;2.60;0.93;;;;;;;;;;5057820;28;20045;-68
2021/09/20 12:10:11;;;;;;;2.20;0.60;;;;;;;;;;5064189;28;20040;-68
2021/09/20 12:12:37;;;;;;;2.10;0.60;;;;;;;;;;5053682;28;20055;-67
2021/09/20 12:15:05;;;;;;;3.00;0.60;;;;;;;;;;5064416;28;20063;-67
2021/09/20 12:17:46;;;;;;;1.45;0.80;;;;;;;;;;5057312;28;20404;-68
2021/09/20 12:20:13;;;;;;;1.20;0.60;;;;;;;;;;5065032;28;20036;-68
2021/09/20 12:22:40;;;;;;;2.28;0.52;;;;;;;;;;5053505;28;20136;-67
2021/09/20 12:25:20;;;;;;;1.88;0.50;;;;;;;;;;5055093;28;21153;-68
2021/09/20 12:27:47;;;;;;;1.85;0.60;;;;;;;;;;5059087;28;20028;-67
2021/09/20 12:30:17;;;;;;;3.28;0.70;;;;;;;;;;5063133;28;20578;-67
2021/09/20 12:32:43;;;;;;;1.00;0.60;;;;;;;;;;5065676;28;20072;-68
2021/09/20 12:35:10;;;;;;;3.47;0.63;;;;;;;;;;5050225;28;20047;-67
2021/09/20 12:37:36;;;;;;;1.75;0.70;;;;;;;;;;5066859;28;20044;-67
2021/09/20 12:40:25;;;;;;;2.67;0.60;;;;;;;;;;5051352;28;20043;-67
2021/09/20 12:43:11;;;;;;;1.25;0.50;;;;;;;;;;5062989;28;20450;-67
2021/09/20 12:45:47;;;;;;;1.88;0.68;;;;;;;;;;5056848;28;20524;-67
2021/09/20 12:48:14;;;;;;;3.58;1.73;;;;;;;;;;5064764;28;20553;-67
2021/09/20 12:50:44;;;;;;;1.48;0.50;;;;;;;;;;5061041;28;20048;-67
2021/09/20 12:53:10;;;;;;;3.28;0.80;;;;;;;;;;5061680;28;20602;-67
2021/09/20 12:55:39;;;;;;;4.63;0.88;;;;;;;;;;5064777;28;20456;-68
2021/09/20 12:58:06;;;;;;;2.13;0.82;;;;;;;;;;5067728;28;20045;-67
2021/09/20 13:00:36;;;;;;;2.30;0.70;;;;;;;;;;5055357;28;20083;-68
2021/09/20 13:03:12;;;;;;;1.85;0.80;;;;;;;;;;5063971;28;20060;-68
2021/09/20 13:05:49;;;;;;;3.00;0.80;;;;;;;;;;5061783;28;20119;-67
2021/09/20 13:08:15;;;;;;;2.30;0.70;;;;;;;;;;5067518;28;20054;-67
2021/09/20 13:10:45;;;;;;;3.00;0.82;;;;;;;;;;5055534;28;20128;-68
2021/09/20 13:13:12;;;;;;;2.17;0.98;;;;;;;;;;5067549;28;20059;-68
2021/09/20 13:15:44;;;;;;;1.60;0.90;;;;;;;;;;5065442;28;20032;-67
2021/09/20 13:18:18;;;;;;;3.97;0.98;;;;;;;;;;5059629;28;20052;-67
2021/09/20 13:20:44;;;;;;;1.33;0.68;;;;;;;;;;5060581;28;20032;-67
2021/09/20 13:23:12;;;;;;;2.47;0.60;;;;;;;;;;5067541;28;20485;-68
2021/09/20 13:25:41;;;;;;;1.52;0.60;;;;;;;;;;5060127;28;20071;-68
2021/09/20 13:28:08;;;;;;;2.75;0.68;;;;;;;;;;5061239;28;20052;-67
2021/09/20 13:30:35;;;;;;;2.33;0.63;;;;;;;;;;5054543;28;20032;-67
2021/09/20 13:33:02;;;;;;;1.83;0.75;;;;;;;;;;5069154;28;20090;-67
2021/09/20 13:35:33;;;;;;;1.77;0.75;;;;;;;;;;5064076;28;20115;-68
2021/09/20 13:37:59;;;;;;;3.58;0.90;;;;;;;;;;5061052;28;20560;-67
2021/09/20 13:40:26;;;;;;;4.95;0.75;;;;;;;;;;5061862;28;20037;-67
2021/09/20 13:42:52;;;;;;;2.70;0.68;;;;;;;;;;5067693;28;20048;-68
2021/09/20 13:45:19;;;;;;;1.55;0.60;;;;;;;;;;5056954;28;20520;-67
2021/09/20 13:47:45;;;;;;;2.72;0.70;;;;;;;;;;5053688;28;20041;-68
2021/09/20 13:50:12;;;;;;;4.38;0.60;;;;;;;;;;5061042;28;20048;-67
2021/09/20 13:52:38;;;;;;;2.28;0.80;;;;;;;;;;5056863;28;20041;-67
2021/09/20 13:55:05;;;;;;;2.05;0.80;;;;;;;;;;5058611;28;20069;-68
2021/09/20 13:57:31;;;;;;;1.77;0.60;;;;;;;;;;5056617;28;20135;-67
2021/09/20 13:59:57;;;;;;;2.20;0.65;;;;;;;;;;5062888;28;20044;-67
2021/09/20 14:02:24;;;;;;;2.17;0.70;;;;;;;;;;5053710;28;20053;-68
2021/09/20 14:04:51;;;;;;;1.67;0.70;;;;;;;;;;5060558;28;20128;-68
2021/09/20 14:07:17;;;;;;;3.97;0.70;;;;;;;;;;5056576;28;20045;-68
2021/09/20 14:09:43;;;;;;;1.58;0.85;;;;;;;;;;5058018;28;20056;-68
2021/09/20 14:12:09;;;;;;;2.80;0.85;;;;;;;;;;5055394;28;20056;-68
2021/09/20 14:14:36;;;;;;;1.80;0.80;;;;;;;;;;5044212;28;20566;-68
2021/09/20 14:17:02;;;;;;;3.70;0.60;;;;;;;;;;5053678;28;20044;-68
2021/09/20 14:19:29;;;;;;;2.08;0.57;;;;;;;;;;5060377;28;20047;-68
2021/09/20 14:21:55;;;;;;;2.85;1.13;;;;;;;;;;5063640;28;20354;-68
2021/09/20 14:24:21;;;;;;;1.77;0.95;;;;;;;;;;5053513;28;20056;-68
2021/09/20 14:26:47;;;;;;;1.75;0.77;;;;;;;;;;5065093;28;20524;-68
2021/09/20 14:29:13;;;;;;;2.42;0.90;;;;;;;;;;5059769;28;20123;-68
2021/09/20 14:31:39;;;;;;;3.20;0.70;;;;;;;;;;5059607;28;20049;-67
2021/09/20 14:34:05;;;;;;;3.25;0.80;;;;;;;;;;5057815;28;20041;-68
2021/09/20 14:36:31;;;;;;;5.70;0.70;;;;;;;;;;5060054;28;20064;-67